Terminal Aerodrome Forecast
Issued by NWS Sterling, VA

Home | Current Version | Previous Version | Text Only | Print | Product List | Glossary On
Versions: 1 2 3 4 5 6 7 8 9 10 11 12 13 14 15 16 17 18 19 20 21 22
165
FTUS41 KLWX 221946 AAA
TAFIAD
TAF AMD
KIAD 221946Z 2220/2324 33016G25KT P6SM SCT050
     FM230000 33008KT P6SM SKC
     FM230800 32004KT P6SM SKC
     FM231800 26004KT P6SM FEW250=

USA.gov is the U.S. government's official web portal to all federal, state and local government web resources and services.